Warzao II — FGE7001 — position and weather

sailwx.info

Track history (hours):
 
Tides and Currents Weather Stations Pressure Air Temp Water Temp Dewpoint Dewpoint Depression Visibility Wind Speed Wind Dir Waves Ship Positions

Warzao II

Last reported at 2017-Aug-22 14:31 UTC. Time now 2017-Sep-24 19:34 UTC.
Position N 47°23' W 002°33'.
Warning: this ship's position is 33 days out of date.

Length 11 m.

Type: Sailing vessel. MMSI: 227667820.

Date/timePositionNaut miles runAvg speedWind from/ knotsBaromVisibWave heightAir tempDewpointWater temp
2017-Aug-22 14:31N 47°23' W 002°33'0 0.0
2017-Aug-22 14:25N 47°23' W 002°33'1 2.2
2017-Aug-22 14:01N 47°24' W 002°32'2 3.7
2017-Aug-22 13:30N 47°25' W 002°35'2 3.2
2017-Aug-22 13:00N 47°24' W 002°37'1 1.1
2017-Aug-22 12:30N 47°25' W 002°37'0 0.0
2017-Aug-22 09:45N 47°25' W 002°37'0 0.0
2017-Aug-22 09:30N 47°25' W 002°37'0 0.0
2017-Aug-22 09:00N 47°25' W 002°37'0 0.0
2017-Aug-22 08:30N 47°25' W 002°37'0 0.2
2017-Aug-22 08:00N 47°25' W 002°38'1 2.2
2017-Aug-22 07:30N 47°26' W 002°37'2 4.7
2017-Aug-22 06:59N 47°24' W 002°34'1 0.1
2017-Aug-21 15:35N 47°23' W 002°33'0 1.2
2017-Aug-21 15:29N 47°23' W 002°33'2 4.7
2017-Aug-21 15:00N 47°23' W 002°36'3 6.5
2017-Aug-21 14:30N 47°23' W 002°41'3 6.4
2017-Aug-21 14:00N 47°22' W 002°45'3 6.2
2017-Aug-21 13:30N 47°21' W 002°50'2 0.1
2017-Aug-20 14:53N 47°20' W 002°52'1 1.7
2017-Aug-20 14:30N 47°21' W 002°51'2 4.8
2017-Aug-20 14:00N 47°22' W 002°48'2 3.6
2017-Aug-20 13:29N 47°23' W 002°46'2 4.5
2017-Aug-20 13:00N 47°24' W 002°43'2 4.3
2017-Aug-20 12:30N 47°24' W 002°40'2 4.5
2017-Aug-20 12:00N 47°24' W 002°37'2 4.5
2017-Aug-20 11:30N 47°24' W 002°33'  
2017-Aug-16 11:06N 47°24' W 002°34'1 5.7
2017-Aug-16 10:56N 47°24' W 002°36'2 5.6
2017-Aug-16 10:30N 47°24' W 002°39'3 5.5
2017-Aug-16 09:55N 47°24' W 002°44'2 5.1
2017-Aug-16 09:26N 47°24' W 002°48'2 4.8
2017-Aug-16 09:00N 47°24' W 002°51'2 4.2
2017-Aug-16 08:30N 47°24' W 002°54'2 3.4
2017-Aug-16 07:59N 47°23' W 002°56'1 0.0
2017-Aug-14 10:42N 47°23' W 002°57'0 1.5
2017-Aug-14 10:30N 47°23' W 002°57'2 4.4
2017-Aug-14 10:00N 47°24' W 002°53'3 5.5
2017-Aug-14 09:30N 47°24' W 002°49'2 4.7
2017-Aug-14 09:00N 47°24' W 002°46'3 5.4
2017-Aug-14 08:30N 47°24' W 002°42'3 5.5
2017-Aug-14 07:59N 47°24' W 002°38'3 5.2
2017-Aug-14 07:29N 47°24' W 002°34'  
Track history (hours):
 
Tides and Currents Weather Stations Pressure Air Temp Water Temp Dewpoint Dewpoint Depression Visibility Wind Speed Wind Dir Waves Ship Positions

Warzao II

Last reported at 2017-Aug-22 14:31 UTC. Time now 2017-Sep-24 19:34 UTC.
Position N 47°23' W 002°33'.
Warning: this ship's position is 33 days out of date.

Length 11 m.

Type: Sailing vessel. MMSI: 227667820.

Date/timePositionNaut miles runAvg speedWind from/ knotsBaromVisibWave heightAir tempDewpointWater temp
2017-Aug-22 14:31N 47°23' W 002°33'0 0.0
2017-Aug-22 14:25N 47°23' W 002°33'1 2.2
2017-Aug-22 14:01N 47°24' W 002°32'2 3.7
2017-Aug-22 13:30N 47°25' W 002°35'2 3.2
2017-Aug-22 13:00N 47°24' W 002°37'1 1.1
2017-Aug-22 12:30N 47°25' W 002°37'0 0.0
2017-Aug-22 09:45N 47°25' W 002°37'0 0.0
2017-Aug-22 09:30N 47°25' W 002°37'0 0.0
2017-Aug-22 09:00N 47°25' W 002°37'0 0.0
2017-Aug-22 08:30N 47°25' W 002°37'0 0.2
2017-Aug-22 08:00N 47°25' W 002°38'1 2.2
2017-Aug-22 07:30N 47°26' W 002°37'2 4.7
2017-Aug-22 06:59N 47°24' W 002°34'1 0.1
2017-Aug-21 15:35N 47°23' W 002°33'0 1.2
2017-Aug-21 15:29N 47°23' W 002°33'2 4.7
2017-Aug-21 15:00N 47°23' W 002°36'3 6.5
2017-Aug-21 14:30N 47°23' W 002°41'3 6.4
2017-Aug-21 14:00N 47°22' W 002°45'3 6.2
2017-Aug-21 13:30N 47°21' W 002°50'2 0.1
2017-Aug-20 14:53N 47°20' W 002°52'1 1.7
2017-Aug-20 14:30N 47°21' W 002°51'2 4.8
2017-Aug-20 14:00N 47°22' W 002°48'2 3.6
2017-Aug-20 13:29N 47°23' W 002°46'2 4.5
2017-Aug-20 13:00N 47°24' W 002°43'2 4.3
2017-Aug-20 12:30N 47°24' W 002°40'2 4.5
2017-Aug-20 12:00N 47°24' W 002°37'2 4.5
2017-Aug-20 11:30N 47°24' W 002°33'  
2017-Aug-16 11:06N 47°24' W 002°34'1 5.7
2017-Aug-16 10:56N 47°24' W 002°36'2 5.6
2017-Aug-16 10:30N 47°24' W 002°39'3 5.5
2017-Aug-16 09:55N 47°24' W 002°44'2 5.1
2017-Aug-16 09:26N 47°24' W 002°48'2 4.8
2017-Aug-16 09:00N 47°24' W 002°51'2 4.2
2017-Aug-16 08:30N 47°24' W 002°54'2 3.4
2017-Aug-16 07:59N 47°23' W 002°56'1 0.0
2017-Aug-14 10:42N 47°23' W 002°57'0 1.5
2017-Aug-14 10:30N 47°23' W 002°57'2 4.4
2017-Aug-14 10:00N 47°24' W 002°53'3 5.5
2017-Aug-14 09:30N 47°24' W 002°49'2 4.7
2017-Aug-14 09:00N 47°24' W 002°46'3 5.4
2017-Aug-14 08:30N 47°24' W 002°42'3 5.5
2017-Aug-14 07:59N 47°24' W 002°38'3 5.2
2017-Aug-14 07:29N 47°24' W 002°34'  

Dump ship's entire track history